createdAt,value
2023-05-04T00:02:15.003Z,70.11
2023-05-04T00:07:19.108Z,69.98
2023-05-04T00:12:22.172Z,70.54
2023-05-04T00:17:23.867Z,71.07
2023-05-04T00:22:25.714Z,71.02
2023-05-04T00:27:27.343Z,71.16
2023-05-04T00:32:29.108Z,71.60
2023-05-04T00:37:30.755Z,70.96
2023-05-04T00:42:32.411Z,71.05
2023-05-04T00:47:34.189Z,71.53
2023-05-04T00:52:37.517Z,72.13
2023-05-04T00:57:39.593Z,72.25
2023-05-04T01:02:42.159Z,71.94
2023-05-04T01:08:13.481Z,71.77
2023-05-04T01:13:16.692Z,72.29
2023-05-04T01:18:19.020Z,71.98
2023-05-04T01:23:22.563Z,72.71
2023-05-04T01:28:36.734Z,73.24
2023-05-04T01:33:39.153Z,73.42
2023-05-04T01:38:42.169Z,73.83
2023-05-04T01:43:43.879Z,73.52
2023-05-04T01:48:45.676Z,74.04
2023-05-04T01:53:47.287Z,73.67
2023-05-04T01:58:50.064Z,73.48
2023-05-04T02:03:51.898Z,74.24
2023-05-04T02:08:53.889Z,74.02
2023-05-04T02:13:55.574Z,73.33
2023-05-04T02:18:57.253Z,74.20
2023-05-04T02:23:59.331Z,74.36
2023-05-04T02:29:02.455Z,74.67
2023-05-04T02:34:04.047Z,75.14
2023-05-04T02:39:05.669Z,75.21
2023-05-04T02:44:08.833Z,74.89
2023-05-04T02:49:10.477Z,74.75
2023-05-04T02:54:12.344Z,74.96
2023-05-04T02:59:14.730Z,75.06
2023-05-04T03:04:16.528Z,74.79
2023-05-04T03:09:18.422Z,74.65
2023-05-04T03:14:21.473Z,74.26
2023-05-04T03:19:23.352Z,74.39
2023-05-04T03:24:25.509Z,74.86
2023-05-04T03:29:27.375Z,74.86
2023-05-04T03:34:30.325Z,74.98
2023-05-04T03:39:36.431Z,75.67
2023-05-04T03:44:38.098Z,76.09
2023-05-04T03:49:39.777Z,75.74
2023-05-04T03:54:41.369Z,76.46
2023-05-04T03:59:43.551Z,76.49
2023-05-04T04:04:45.439Z,76.97
2023-05-04T04:09:47.250Z,76.96
2023-05-04T04:14:51.006Z,77.06
2023-05-04T04:19:52.573Z,77.20
2023-05-04T04:24:54.211Z,77.29
2023-05-04T04:29:55.962Z,77.30
2023-05-04T04:34:57.681Z,77.26
2023-05-04T04:39:59.377Z,76.60
2023-05-04T04:45:01.136Z,76.70
2023-05-04T04:50:05.640Z,77.45
2023-05-04T04:55:08.157Z,76.96
2023-05-04T05:00:10.569Z,76.67
2023-05-04T05:05:13.031Z,77.01
2023-05-04T05:10:14.915Z,77.14
2023-05-04T05:15:17.067Z,76.64
2023-05-04T05:20:18.798Z,76.74
2023-05-04T05:25:21.512Z,76.78
2023-05-04T05:30:23.280Z,76.57
2023-05-04T05:35:24.880Z,76.07
2023-05-04T05:40:26.537Z,75.47
2023-05-04T05:45:28.364Z,75.57
2023-05-04T05:50:30.052Z,75.07
2023-05-04T05:55:31.716Z,74.35
2023-05-04T06:00:33.313Z,75.00
2023-05-04T06:05:36.829Z,74.68
2023-05-04T06:10:38.486Z,74.70
2023-05-04T06:15:40.112Z,74.81
2023-05-04T06:20:41.724Z,75.10
2023-05-04T06:25:43.497Z,74.71
2023-05-04T06:30:45.279Z,74.22
2023-05-04T06:35:47.103Z,73.51
2023-05-04T06:40:48.805Z,72.57
2023-05-04T06:45:51.905Z,72.33
2023-05-04T06:50:53.845Z,71.40
2023-05-04T06:55:55.461Z,71.04
2023-05-04T07:00:57.207Z,71.24
2023-05-04T07:05:58.837Z,69.97
2023-05-04T07:11:00.698Z,71.25
2023-05-04T07:16:02.305Z,69.23
2023-05-04T07:21:21.906Z,68.13
2023-05-04T07:26:26.008Z,69.37
2023-05-04T07:31:29.499Z,69.27
2023-05-04T07:36:35.318Z,68.51
2023-05-04T07:41:37.150Z,69.28
2023-05-04T07:46:39.073Z,69.05
2023-05-04T07:51:40.758Z,68.92
2023-05-04T07:56:42.491Z,67.93
2023-05-04T08:01:44.756Z,66.49
2023-05-04T08:06:46.541Z,66.49
2023-05-04T08:11:49.047Z,65.93
2023-05-04T08:16:53.786Z,64.70
2023-05-04T08:21:55.545Z,64.35
2023-05-04T08:27:07.038Z,63.72
2023-05-04T08:32:09.904Z,63.56
2023-05-04T08:37:11.749Z,63.29
2023-05-04T08:42:13.526Z,64.04
2023-05-04T08:47:15.392Z,61.11
2023-05-04T08:52:17.595Z,60.83
2023-05-04T08:57:22.105Z,59.72
2023-05-04T09:02:24.791Z,60.46
2023-05-04T09:07:26.917Z,59.07
2023-05-04T09:12:28.744Z,57.52
2023-05-04T09:17:30.524Z,58.56
2023-05-04T09:22:32.542Z,57.82
2023-05-04T09:27:34.202Z,57.25
2023-05-04T09:32:46.596Z,56.87
2023-05-04T09:37:48.941Z,56.51
2023-05-04T09:42:57.003Z,56.42
2023-05-04T09:47:58.849Z,56.27
2023-05-04T09:53:00.988Z,55.56
2023-05-04T09:58:03.031Z,54.96
2023-05-04T10:03:06.575Z,53.13
2023-05-04T10:08:08.778Z,54.25
2023-05-04T10:13:10.533Z,52.99
2023-05-04T10:18:43.396Z,52.50
2023-05-04T10:24:21.996Z,53.75
2023-05-04T10:29:29.559Z,53.87
2023-05-04T10:34:33.052Z,53.50
2023-05-04T10:39:36.207Z,52.64
2023-05-04T10:44:56.812Z,51.69
2023-05-04T10:50:09.837Z,52.24
2023-05-04T10:55:11.731Z,50.79
2023-05-04T11:00:15.816Z,51.23
2023-05-04T11:05:21.546Z,51.27
2023-05-04T11:10:25.235Z,50.92
2023-05-04T11:15:26.998Z,49.58
2023-05-04T11:20:28.647Z,47.53
2023-05-04T11:25:31.211Z,48.77
2023-05-04T11:30:34.642Z,48.46
2023-05-04T11:35:36.657Z,46.89
2023-05-04T11:40:41.141Z,45.76
2023-05-04T11:45:43.416Z,46.99
2023-05-04T11:50:47.214Z,47.14
2023-05-04T11:55:50.136Z,46.40
2023-05-04T12:00:56.771Z,46.62
2023-05-04T12:05:59.348Z,46.35
2023-05-04T12:11:13.479Z,46.12
2023-05-04T12:16:20.215Z,44.74
2023-05-04T12:21:25.079Z,44.70
2023-05-04T12:26:27.605Z,45.31
2023-05-04T12:31:30.486Z,44.69
2023-05-04T12:36:32.161Z,44.97
2023-05-04T12:41:34.048Z,44.87
2023-05-04T12:46:35.832Z,45.55
2023-05-04T12:51:37.468Z,45.33
2023-05-04T12:56:39.828Z,44.82
2023-05-04T13:01:41.789Z,45.36
2023-05-04T13:06:44.625Z,45.12
2023-05-04T13:11:47.568Z,43.61
2023-05-04T13:16:51.038Z,44.17
2023-05-04T13:21:54.270Z,44.10
2023-05-04T13:26:56.263Z,43.06
2023-05-04T13:31:59.400Z,41.89
2023-05-04T13:37:01.274Z,42.40
2023-05-04T13:42:03.987Z,43.65
2023-05-04T13:47:05.676Z,42.87
2023-05-04T13:52:07.554Z,42.23
2023-05-04T13:57:09.174Z,42.13
2023-05-04T14:02:10.858Z,42.08
2023-05-04T14:07:12.513Z,41.82
2023-05-04T14:12:15.726Z,41.63
2023-05-04T14:17:17.619Z,41.33
2023-05-04T14:22:19.639Z,39.27
2023-05-04T14:27:24.012Z,38.65
2023-05-04T14:32:25.806Z,37.54
2023-05-04T14:37:27.492Z,40.29
2023-05-04T14:42:29.140Z,41.39
2023-05-04T14:47:30.975Z,40.11
2023-05-04T14:52:32.794Z,36.98
2023-05-04T14:57:34.486Z,36.63
2023-05-04T15:02:36.228Z,31.84
2023-05-04T15:07:38.556Z,35.32
2023-05-04T15:12:40.388Z,34.65
2023-05-04T15:17:42.171Z,33.25
2023-05-04T15:22:53.983Z,32.68
2023-05-04T15:27:55.953Z,33.52
2023-05-04T15:32:57.841Z,35.18
2023-05-04T15:38:00.182Z,36.81
2023-05-04T15:43:01.887Z,35.72
2023-05-04T15:48:03.746Z,35.67
2023-05-04T15:53:05.384Z,35.57
2023-05-04T15:58:07.790Z,36.22
2023-05-04T16:03:09.561Z,36.78
2023-05-04T16:08:11.606Z,35.14
2023-05-04T16:13:13.453Z,34.48
2023-05-04T16:18:15.342Z,35.16
2023-05-04T16:23:17.873Z,35.41
2023-05-04T16:28:20.134Z,33.89
2023-05-04T16:33:22.129Z,34.28
2023-05-04T16:38:23.981Z,34.41
2023-05-04T16:43:25.851Z,34.14
2023-05-04T16:48:27.825Z,33.38
2023-05-04T16:53:29.542Z,34.75
2023-05-04T16:58:31.400Z,34.66
2023-05-04T17:03:33.104Z,35.28
2023-05-04T17:08:34.987Z,35.68
2023-05-04T17:13:36.968Z,35.87
2023-05-04T17:18:38.717Z,36.13
2023-05-04T17:23:41.613Z,36.50
2023-05-04T17:28:43.415Z,35.63
2023-05-04T17:33:45.761Z,37.13
2023-05-04T17:38:47.457Z,37.77
2023-05-04T17:43:50.275Z,38.17
2023-05-04T17:48:53.205Z,38.67
2023-05-04T17:53:54.908Z,38.66
2023-05-04T17:58:56.577Z,40.32
2023-05-04T18:03:58.622Z,39.80
2023-05-04T18:09:01.477Z,40.94
2023-05-04T18:14:03.687Z,41.93
2023-05-04T18:19:06.632Z,42.35
2023-05-04T18:24:08.538Z,41.78
2023-05-04T18:29:19.002Z,42.08
2023-05-04T18:34:22.060Z,42.53
2023-05-04T18:39:23.805Z,42.50
2023-05-04T18:44:25.505Z,42.87
2023-05-04T18:49:27.459Z,43.15
2023-05-04T18:54:32.715Z,43.50
2023-05-04T18:59:35.036Z,43.38
2023-05-04T19:04:37.119Z,44.27
2023-05-04T19:09:38.844Z,45.48
2023-05-04T19:14:40.737Z,45.64
2023-05-04T19:19:42.433Z,46.09
2023-05-04T19:24:44.215Z,45.96
2023-05-04T19:29:46.667Z,46.20
2023-05-04T19:34:48.467Z,46.59
2023-05-04T19:39:53.320Z,46.35
2023-05-04T19:44:54.900Z,47.15
2023-05-04T19:49:56.652Z,46.97
2023-05-04T19:54:58.384Z,47.47
2023-05-04T20:00:02.067Z,47.82
2023-05-04T20:05:13.771Z,47.95
2023-05-04T20:10:15.648Z,48.35
2023-05-04T20:15:17.633Z,48.33
2023-05-04T20:20:20.637Z,48.15
2023-05-04T20:25:22.903Z,48.69
2023-05-04T20:30:28.090Z,49.23
2023-05-04T20:35:29.859Z,49.28
2023-05-04T20:40:32.147Z,49.17
2023-05-04T20:45:34.306Z,49.05
2023-05-04T20:50:36.029Z,49.39
2023-05-04T20:55:37.712Z,49.07
2023-05-04T21:00:40.132Z,49.26
2023-05-04T21:05:41.939Z,49.23
2023-05-04T21:10:43.541Z,49.61
2023-05-04T21:15:45.304Z,49.33
2023-05-04T21:20:47.308Z,49.06
2023-05-04T21:25:48.949Z,49.42
2023-05-04T21:30:53.607Z,49.17
2023-05-04T21:35:55.297Z,49.46
2023-05-04T21:40:56.995Z,49.57
2023-05-04T21:45:58.579Z,50.37
2023-05-04T21:51:00.731Z,50.53
2023-05-04T21:56:09.532Z,51.54
2023-05-04T22:01:15.782Z,51.75
2023-05-04T22:06:17.526Z,51.67
2023-05-04T22:11:19.170Z,52.51
2023-05-04T22:16:22.117Z,52.07
2023-05-04T22:21:23.911Z,52.37
2023-05-04T22:26:25.542Z,53.32
2023-05-04T22:31:27.283Z,52.80
2023-05-04T22:36:28.969Z,54.36
2023-05-04T22:41:31.933Z,53.94
2023-05-04T22:46:33.577Z,53.69
2023-05-04T22:51:35.492Z,54.43
2023-05-04T22:56:37.116Z,54.02
2023-05-04T23:01:43.217Z,53.39
2023-05-04T23:06:45.259Z,55.60
2023-05-04T23:11:47.555Z,57.18
2023-05-04T23:16:49.226Z,55.90
2023-05-04T23:21:51.886Z,56.64
2023-05-04T23:26:53.573Z,57.54
2023-05-04T23:31:55.275Z,58.90
2023-05-04T23:36:57.146Z,59.35
2023-05-04T23:41:58.834Z,57.88
2023-05-04T23:47:00.545Z,58.18
2023-05-04T23:52:03.104Z,58.82
2023-05-04T23:57:07.737Z,58.49
